createdAt,value
2018-06-02T00:00:49.524Z,18.40
2018-06-02T00:03:17.768Z,18.40
2018-06-02T00:05:45.256Z,18.30
2018-06-02T00:08:12.719Z,18.30
2018-06-02T00:10:40.196Z,18.30
2018-06-02T00:13:08.422Z,18.30
2018-06-02T00:15:35.911Z,18.20
2018-06-02T00:18:03.411Z,18.30
2018-06-02T00:20:30.913Z,18.30
2018-06-02T00:22:58.384Z,18.30
2018-06-02T00:25:25.880Z,18.20
2018-06-02T00:27:53.440Z,18.10
2018-06-02T00:30:20.922Z,18.20
2018-06-02T00:32:48.384Z,18.10
2018-06-02T00:35:15.869Z,18.10
2018-06-02T00:37:43.332Z,18.00
2018-06-02T00:40:11.644Z,18.00
2018-06-02T00:42:39.157Z,18.00
2018-06-02T00:45:06.639Z,17.90
2018-06-02T00:47:34.937Z,17.90
2018-06-02T00:50:02.421Z,17.90
2018-06-02T00:52:29.895Z,17.90
2018-06-02T00:55:08.203Z,17.90
2018-06-02T00:57:35.683Z,17.90
2018-06-02T01:00:03.924Z,17.70
2018-06-02T01:02:31.446Z,17.80
2018-06-02T01:04:58.936Z,17.70
2018-06-02T01:07:26.411Z,17.70
2018-06-02T01:09:53.930Z,17.60
2018-06-02T01:12:21.448Z,17.70
2018-06-02T01:14:49.735Z,17.70
2018-06-02T01:17:17.968Z,17.70
2018-06-02T01:19:45.488Z,17.70
2018-06-02T01:22:12.951Z,17.70
2018-06-02T01:24:40.416Z,17.60
2018-06-02T01:27:07.938Z,17.60
2018-06-02T01:29:36.185Z,17.60
2018-06-02T01:32:04.434Z,17.60
2018-06-02T01:34:31.941Z,17.60
2018-06-02T01:37:00.210Z,17.60
2018-06-02T01:39:29.260Z,17.60
2018-06-02T01:41:56.744Z,17.60
2018-06-02T01:44:24.220Z,17.60
2018-06-02T01:46:52.538Z,17.50
2018-06-02T01:49:20.002Z,17.50
2018-06-02T01:51:47.499Z,17.50
2018-06-02T01:54:16.475Z,17.50
2018-06-02T01:56:44.078Z,17.50
2018-06-02T01:59:12.340Z,17.50
2018-06-02T02:01:39.843Z,17.50
2018-06-02T02:04:07.310Z,17.50
2018-06-02T02:06:34.804Z,17.50
2018-06-02T02:09:02.277Z,17.40
2018-06-02T02:11:30.527Z,17.40
2018-06-02T02:13:58.007Z,17.40
2018-06-02T02:16:26.264Z,17.40
2018-06-02T02:18:54.491Z,17.40
2018-06-02T02:21:21.980Z,17.30
2018-06-02T02:23:49.455Z,17.20
2018-06-02T02:26:16.955Z,17.20
2018-06-02T02:28:44.420Z,17.00
2018-06-02T02:31:11.940Z,17.10
2018-06-02T02:33:40.186Z,17.10
2018-06-02T02:36:07.692Z,17.10
2018-06-02T02:38:35.168Z,17.20
2018-06-02T02:41:02.688Z,17.20
2018-06-02T02:43:30.169Z,17.30
2018-06-02T02:45:57.643Z,17.30
2018-06-02T02:48:25.132Z,17.30
2018-06-02T02:50:52.612Z,17.20
2018-06-02T02:53:20.072Z,17.20
2018-06-02T02:55:48.344Z,17.10
2018-06-02T02:58:15.821Z,17.10
2018-06-02T03:00:44.083Z,17.10
2018-06-02T03:03:12.354Z,17.10
2018-06-02T03:05:39.839Z,17.10
2018-06-02T03:08:07.371Z,17.10
2018-06-02T03:10:34.972Z,17.10
2018-06-02T03:13:02.442Z,17.00
2018-06-02T03:15:29.932Z,17.00
2018-06-02T03:17:58.899Z,16.80
2018-06-02T03:20:26.408Z,16.80
2018-06-02T03:22:54.653Z,16.80
2018-06-02T03:25:22.152Z,16.80
2018-06-02T03:27:49.694Z,16.70
2018-06-02T03:30:17.963Z,16.50
2018-06-02T03:32:45.424Z,16.50
2018-06-02T03:35:13.662Z,16.70
2018-06-02T03:37:41.153Z,16.70
2018-06-02T03:40:08.622Z,16.60
2018-06-02T03:42:36.864Z,16.50
2018-06-02T03:45:04.352Z,16.50
2018-06-02T03:47:32.600Z,16.60
2018-06-02T03:50:00.067Z,16.50
2018-06-02T03:52:29.069Z,16.60
2018-06-02T03:54:57.341Z,16.50
2018-06-02T03:57:24.832Z,16.50
2018-06-02T03:59:52.378Z,16.40
2018-06-02T04:02:20.628Z,16.40
2018-06-02T04:04:48.896Z,16.50
2018-06-02T04:07:16.372Z,16.40
2018-06-02T04:09:44.599Z,16.60
2018-06-02T04:12:12.087Z,16.60
2018-06-02T04:14:40.318Z,16.70
2018-06-02T04:17:07.818Z,16.70
2018-06-02T04:19:36.802Z,16.80
2018-06-02T04:22:04.280Z,16.80
2018-06-02T04:24:32.520Z,16.80
2018-06-02T04:27:00.005Z,16.80
2018-06-02T04:29:28.248Z,16.80
2018-06-02T04:31:55.727Z,16.80
2018-06-02T04:34:23.208Z,16.80
2018-06-02T04:36:51.457Z,16.90
2018-06-02T04:39:18.931Z,16.90
2018-06-02T04:41:46.442Z,16.90
2018-06-02T04:44:13.919Z,16.90
2018-06-02T04:46:41.400Z,16.90
2018-06-02T04:49:10.384Z,16.80
2018-06-02T04:51:37.859Z,16.80
2018-06-02T04:54:05.335Z,16.80
2018-06-02T04:56:33.591Z,17.00
2018-06-02T04:59:01.275Z,16.90
2018-06-02T05:01:29.631Z,17.10
2018-06-02T05:03:57.857Z,17.20
2018-06-02T05:06:25.369Z,17.10
2018-06-02T05:08:52.843Z,17.20
2018-06-02T05:11:21.107Z,17.40
2018-06-02T05:13:49.331Z,17.40
2018-06-02T05:16:16.825Z,17.40
2018-06-02T05:18:44.295Z,17.50
2018-06-02T05:21:12.555Z,17.60
2018-06-02T05:23:40.852Z,17.70
2018-06-02T05:26:09.104Z,17.70
2018-06-02T05:28:36.588Z,17.70
2018-06-02T05:31:04.860Z,17.80
2018-06-02T05:33:33.093Z,17.80
2018-06-02T05:36:00.592Z,17.80
2018-06-02T05:38:28.868Z,17.90
2018-06-02T05:40:57.127Z,17.90
2018-06-02T05:43:24.608Z,17.90
2018-06-02T05:45:52.879Z,18.00
2018-06-02T05:48:21.288Z,18.00
2018-06-02T05:50:48.803Z,18.00
2018-06-02T05:53:17.048Z,18.00
2018-06-02T05:55:44.535Z,18.00
2018-06-02T05:58:12.023Z,18.00
2018-06-02T06:00:39.500Z,18.00
2018-06-02T06:03:06.994Z,18.00
2018-06-02T06:05:35.243Z,18.10
2018-06-02T06:08:02.734Z,18.10
2018-06-02T06:10:31.705Z,18.20
2018-06-02T06:12:59.182Z,18.20
2018-06-02T06:15:26.750Z,18.20
2018-06-02T06:17:55.020Z,18.30
2018-06-02T06:20:22.501Z,18.30
2018-06-02T06:22:50.754Z,18.40
2018-06-02T06:25:18.249Z,18.30
2018-06-02T06:27:45.748Z,18.40
2018-06-02T06:30:13.217Z,18.40
2018-06-02T06:32:40.693Z,18.40
2018-06-02T06:35:08.924Z,18.50
2018-06-02T06:37:36.520Z,18.40
2018-06-02T06:40:03.999Z,18.60
2018-06-02T06:42:32.267Z,18.60
2018-06-02T06:45:00.497Z,18.60
2018-06-02T06:47:27.995Z,18.60
2018-06-02T06:49:56.232Z,18.70
2018-06-02T06:52:23.719Z,18.70
2018-06-02T06:54:51.962Z,18.80
2018-06-02T06:57:19.489Z,18.80
2018-06-02T06:59:46.960Z,18.90
2018-06-02T07:02:14.452Z,19.00
2018-06-02T07:04:41.920Z,18.90
2018-06-02T07:07:09.404Z,19.00
2018-06-02T07:09:36.884Z,19.00
2018-06-02T07:12:04.422Z,19.20
2018-06-02T07:14:31.967Z,19.40
2018-06-02T07:17:00.225Z,19.30
2018-06-02T07:19:27.695Z,19.30
2018-06-02T07:21:55.956Z,19.50
2018-06-02T07:24:23.419Z,19.50
2018-06-02T07:26:50.942Z,19.60
2018-06-02T07:29:18.414Z,19.50
2018-06-02T07:31:45.893Z,19.70
2018-06-02T07:34:13.390Z,19.80
2018-06-02T07:36:40.888Z,19.90
2018-06-02T07:39:08.477Z,20.00
2018-06-02T07:41:36.752Z,20.00
2018-06-02T07:44:05.020Z,20.00
2018-06-02T07:46:33.309Z,20.00
2018-06-02T07:49:01.552Z,20.10
2018-06-02T07:51:29.057Z,20.10
2018-06-02T07:53:56.594Z,20.10
2018-06-02T07:56:24.839Z,20.30
2018-06-02T07:58:52.300Z,20.30
2018-06-02T08:01:19.784Z,20.50
2018-06-02T08:03:48.027Z,20.60
2018-06-02T08:06:15.568Z,20.60
2018-06-02T08:08:43.101Z,20.80
2018-06-02T08:11:12.051Z,20.80
2018-06-02T08:13:39.557Z,20.80
2018-06-02T08:16:07.035Z,20.80
2018-06-02T08:18:34.532Z,20.90
2018-06-02T08:21:02.776Z,21.20
2018-06-02T08:23:30.256Z,21.10
2018-06-02T08:25:57.735Z,21.20
2018-06-02T08:28:25.994Z,21.50
2018-06-02T08:30:53.501Z,21.50
2018-06-02T08:33:21.062Z,21.30
2018-06-02T08:35:48.474Z,21.30
2018-06-02T08:38:16.721Z,21.40
2018-06-02T08:40:44.178Z,21.40
2018-06-02T08:43:11.667Z,21.30
2018-06-02T08:45:39.902Z,21.30
2018-06-02T08:48:07.390Z,21.30
2018-06-02T08:50:34.890Z,21.50
2018-06-02T08:53:02.373Z,21.50
2018-06-02T08:55:29.840Z,21.50
2018-06-02T08:57:57.474Z,21.60
2018-06-02T09:00:24.954Z,21.70
2018-06-02T09:02:52.820Z,21.70
2018-06-02T09:05:20.333Z,21.80
2018-06-02T09:07:48.595Z,21.90
2018-06-02T09:10:16.828Z,22.10
2018-06-02T09:12:44.359Z,22.10
2018-06-02T09:15:11.850Z,22.20
2018-06-02T09:17:39.327Z,22.10
2018-06-02T09:20:06.832Z,22.20
2018-06-02T09:22:34.329Z,22.20
2018-06-02T09:25:01.804Z,22.20
2018-06-02T09:27:30.072Z,22.30
2018-06-02T09:29:57.560Z,22.20
2018-06-02T09:32:25.809Z,22.50
2018-06-02T09:34:53.292Z,22.50
2018-06-02T09:37:21.538Z,23.00
2018-06-02T09:39:49.006Z,22.90
2018-06-02T09:42:17.298Z,23.10
2018-06-02T09:44:45.597Z,23.10
2018-06-02T09:47:13.820Z,23.30
2018-06-02T09:49:42.108Z,23.10
2018-06-02T09:52:09.590Z,23.10
2018-06-02T09:54:37.086Z,23.20
2018-06-02T09:57:04.759Z,23.20
2018-06-02T09:59:33.031Z,23.20
2018-06-02T10:02:00.508Z,23.20
2018-06-02T10:04:27.973Z,23.30
2018-06-02T10:06:56.228Z,23.30
2018-06-02T10:09:23.726Z,23.20
2018-06-02T10:11:51.220Z,23.30
2018-06-02T10:14:18.692Z,23.30
2018-06-02T10:16:46.197Z,23.50
2018-06-02T10:19:13.671Z,23.60
2018-06-02T10:21:41.138Z,23.60
2018-06-02T10:24:08.651Z,23.50
2018-06-02T10:26:36.115Z,23.50
2018-06-02T10:29:04.379Z,23.60
2018-06-02T10:31:33.371Z,23.70
2018-06-02T10:34:00.939Z,23.70
2018-06-02T10:36:29.179Z,23.70
2018-06-02T10:38:56.706Z,23.70
2018-06-02T10:41:24.245Z,23.80
2018-06-02T10:43:51.727Z,23.90
2018-06-02T10:46:19.286Z,24.10
2018-06-02T10:48:46.780Z,24.20
2018-06-02T10:51:14.294Z,24.20
2018-06-02T10:53:42.588Z,24.10
2018-06-02T10:56:10.053Z,24.10
2018-06-02T10:58:37.544Z,24.40
2018-06-02T11:01:05.011Z,24.50
2018-06-02T11:03:33.283Z,24.60
2018-06-02T11:06:01.537Z,24.60
2018-06-02T11:08:29.117Z,24.60
2018-06-02T11:10:56.590Z,24.50
2018-06-02T11:13:24.839Z,24.70
2018-06-02T11:15:53.067Z,24.50
2018-06-02T11:18:20.566Z,24.50
2018-06-02T11:20:48.039Z,24.80
2018-06-02T11:23:15.547Z,24.60
2018-06-02T11:25:43.056Z,24.80
2018-06-02T11:28:10.656Z,24.80
2018-06-02T11:30:38.215Z,24.90
2018-06-02T11:33:05.717Z,24.90
2018-06-02T11:35:33.194Z,24.90
2018-06-02T11:38:01.507Z,24.60
2018-06-02T11:40:29.063Z,24.60
2018-06-02T11:42:56.624Z,24.50
2018-06-02T11:45:24.093Z,24.60
2018-06-02T11:47:51.575Z,24.70
2018-06-02T11:50:19.059Z,24.80
2018-06-02T11:52:47.354Z,25.10
2018-06-02T11:55:14.930Z,25.10
2018-06-02T11:57:42.425Z,24.90
2018-06-02T12:00:09.960Z,25.00
2018-06-02T12:02:37.490Z,24.90
2018-06-02T12:05:05.065Z,25.10
2018-06-02T12:07:32.584Z,25.40
2018-06-02T12:10:00.087Z,25.50
2018-06-02T12:12:27.592Z,25.70
2018-06-02T12:14:55.071Z,25.70
2018-06-02T12:17:23.358Z,25.60
2018-06-02T12:19:50.840Z,25.50
2018-06-02T12:22:18.332Z,25.70
2018-06-02T12:24:45.807Z,25.50
2018-06-02T12:27:13.285Z,25.40
2018-06-02T12:29:40.786Z,25.10
2018-06-02T12:32:08.251Z,25.20
2018-06-02T12:34:35.761Z,25.30
2018-06-02T12:37:03.239Z,25.30
2018-06-02T12:39:30.736Z,25.10
2018-06-02T12:41:58.223Z,25.00
2018-06-02T12:44:26.499Z,25.10
2018-06-02T12:46:53.969Z,25.10
2018-06-02T12:49:21.475Z,25.30
2018-06-02T12:51:48.962Z,25.40
2018-06-02T12:54:17.208Z,25.90
2018-06-02T12:56:44.708Z,25.90
2018-06-02T12:59:13.008Z,25.70
2018-06-02T13:01:40.493Z,25.70
2018-06-02T13:04:07.987Z,25.60
2018-06-02T13:06:36.233Z,25.50
2018-06-02T13:09:03.731Z,25.50
2018-06-02T13:11:31.964Z,25.30
2018-06-02T13:13:59.465Z,25.20
2018-06-02T13:16:27.696Z,25.30
2018-06-02T13:18:55.194Z,25.20
2018-06-02T13:21:23.438Z,25.00
2018-06-02T13:23:50.964Z,25.00
2018-06-02T13:26:18.454Z,25.00
2018-06-02T13:28:45.948Z,25.00
2018-06-02T13:31:13.498Z,24.80
2018-06-02T13:33:41.748Z,24.90
2018-06-02T13:36:09.238Z,24.90
2018-06-02T13:38:37.506Z,25.00
2018-06-02T13:41:05.737Z,25.00
2018-06-02T13:43:33.253Z,25.00
2018-06-02T13:46:00.735Z,25.00
2018-06-02T13:48:28.249Z,25.20
2018-06-02T13:50:56.556Z,26.00
2018-06-02T13:53:24.042Z,26.00
2018-06-02T13:55:51.520Z,26.70
2018-06-02T13:58:19.000Z,26.70
2018-06-02T14:00:47.239Z,26.30
2018-06-02T14:03:14.827Z,26.30
2018-06-02T14:05:43.096Z,25.80
2018-06-02T14:08:10.623Z,25.80
2018-06-02T14:10:38.093Z,25.80
2018-06-02T14:13:05.588Z,25.70
2018-06-02T14:15:33.821Z,25.40
2018-06-02T14:18:01.405Z,25.40
2018-06-02T14:20:28.873Z,25.20
2018-06-02T14:22:57.127Z,24.90
2018-06-02T14:25:24.600Z,24.80
2018-06-02T14:27:52.865Z,24.60
2018-06-02T14:30:20.323Z,24.60
2018-06-02T14:32:47.847Z,24.60
2018-06-02T14:35:15.312Z,24.70
2018-06-02T14:37:42.819Z,24.80
2018-06-02T14:40:11.083Z,25.40
2018-06-02T14:42:39.323Z,25.30
2018-06-02T14:45:06.931Z,25.30
2018-06-02T14:47:35.165Z,26.10
2018-06-02T14:50:02.995Z,26.00
2018-06-02T14:52:30.473Z,26.90
2018-06-02T14:54:57.973Z,27.80
2018-06-02T14:57:26.223Z,27.60
2018-06-02T14:59:53.707Z,27.60
2018-06-02T15:02:22.017Z,27.20
2018-06-02T15:04:49.682Z,27.20
2018-06-02T15:07:17.157Z,27.00
2018-06-02T15:09:44.637Z,26.90
2018-06-02T15:12:12.893Z,26.80
2018-06-02T15:14:40.379Z,26.80
2018-06-02T15:17:07.841Z,26.70
2018-06-02T15:19:36.165Z,26.90
2018-06-02T15:22:03.643Z,26.90
2018-06-02T15:24:31.243Z,27.10
2018-06-02T15:26:59.562Z,27.20
2018-06-02T15:29:27.049Z,27.20
2018-06-02T15:31:54.512Z,27.20
2018-06-02T15:34:22.000Z,27.30
2018-06-02T15:36:50.248Z,27.10
2018-06-02T15:39:17.771Z,27.10
2018-06-02T15:41:45.286Z,27.30
2018-06-02T15:44:13.599Z,29.10
2018-06-02T15:46:41.160Z,29.10
2018-06-02T15:49:08.653Z,29.70
2018-06-02T15:51:36.166Z,30.80
2018-06-02T15:54:03.669Z,31.70
2018-06-02T15:56:31.144Z,32.30
2018-06-02T15:58:58.650Z,32.50
2018-06-02T16:01:26.207Z,33.40
2018-06-02T16:03:53.687Z,33.30
2018-06-02T16:06:21.164Z,34.20
2018-06-02T16:08:48.653Z,34.20
2018-06-02T16:11:16.144Z,33.50
2018-06-02T16:13:43.642Z,32.20
2018-06-02T16:16:11.136Z,31.40
2018-06-02T16:18:38.705Z,30.60
2018-06-02T16:21:06.265Z,30.30
2018-06-02T16:23:33.744Z,29.30
2018-06-02T16:26:01.241Z,29.80
2018-06-02T16:28:28.729Z,28.90
2018-06-02T16:30:56.204Z,27.90
2018-06-02T16:33:23.693Z,27.50
2018-06-02T16:35:51.207Z,27.30
2018-06-02T16:38:18.706Z,27.00
2018-06-02T16:40:46.179Z,26.80
2018-06-02T16:43:13.681Z,26.90
2018-06-02T16:45:41.240Z,27.20
2018-06-02T16:48:08.715Z,26.90
2018-06-02T16:50:36.213Z,26.50
2018-06-02T16:53:03.701Z,26.30
2018-06-02T16:55:31.240Z,26.10
2018-06-02T16:57:59.469Z,25.80
2018-06-02T17:00:26.969Z,25.80
2018-06-02T17:02:55.226Z,25.50
2018-06-02T17:05:22.701Z,25.50
2018-06-02T17:07:50.943Z,25.80
2018-06-02T17:10:18.528Z,25.80
2018-06-02T17:12:45.984Z,25.90
2018-06-02T17:15:13.474Z,25.60
2018-06-02T17:17:40.934Z,25.50
2018-06-02T17:20:08.465Z,25.20
2018-06-02T17:22:36.705Z,25.20
2018-06-02T17:25:04.241Z,25.20
2018-06-02T17:27:31.712Z,25.40
2018-06-02T17:29:59.213Z,25.50
2018-06-02T17:32:27.444Z,25.20
2018-06-02T17:34:54.929Z,25.10
2018-06-02T17:37:22.395Z,25.20
2018-06-02T17:39:50.721Z,24.80
2018-06-02T17:42:18.192Z,24.80
2018-06-02T17:44:45.734Z,24.80
2018-06-02T17:47:13.251Z,24.90
2018-06-02T17:49:41.535Z,24.90
2018-06-02T17:52:09.816Z,24.70
2018-06-02T17:54:38.077Z,24.90
2018-06-02T17:57:05.675Z,24.80
2018-06-02T17:59:33.235Z,24.80
2018-06-02T18:02:00.794Z,24.60
2018-06-02T18:04:28.279Z,24.60
2018-06-02T18:06:55.745Z,24.40
2018-06-02T18:09:23.349Z,24.30
2018-06-02T18:11:51.621Z,24.40
2018-06-02T18:14:19.988Z,24.40
2018-06-02T18:16:48.221Z,24.20
2018-06-02T18:19:15.713Z,24.30
2018-06-02T18:21:44.009Z,24.10
2018-06-02T18:24:12.261Z,24.00
2018-06-02T18:26:39.735Z,24.00
2018-06-02T18:29:07.986Z,24.10
2018-06-02T18:31:35.459Z,24.00
2018-06-02T18:34:03.708Z,23.90
2018-06-02T18:36:31.230Z,23.90
2018-06-02T18:38:58.712Z,23.80
2018-06-02T18:41:26.211Z,23.70
2018-06-02T18:43:54.510Z,23.70
2018-06-02T18:46:22.004Z,23.70
2018-06-02T18:48:49.496Z,23.60
2018-06-02T18:51:17.738Z,23.50
2018-06-02T18:53:45.269Z,23.50
2018-06-02T18:56:12.773Z,23.50
2018-06-02T18:58:41.079Z,23.50
2018-06-02T19:01:09.337Z,23.40
2018-06-02T19:03:36.999Z,23.40
2018-06-02T19:06:04.572Z,23.50
2018-06-02T19:08:32.850Z,23.40
2018-06-02T19:11:01.098Z,23.40
2018-06-02T19:13:28.572Z,23.30
2018-06-02T19:15:56.830Z,23.30
2018-06-02T19:18:57.716Z,23.30
2018-06-02T19:21:25.985Z,23.30
2018-06-02T19:23:54.336Z,23.20
2018-06-02T19:26:22.657Z,23.30
2018-06-02T19:28:50.970Z,23.30
2018-06-02T19:31:19.272Z,23.30
2018-06-02T19:33:47.582Z,23.20
2018-06-02T19:36:15.928Z,23.10
2018-06-02T19:38:44.228Z,23.20
2018-06-02T19:41:12.724Z,23.20
2018-06-02T19:43:41.005Z,23.10
2018-06-02T19:46:09.318Z,23.00
2018-06-02T19:48:37.614Z,23.00
2018-06-02T19:51:05.925Z,22.90
2018-06-02T19:53:34.306Z,22.80
2018-06-02T19:56:02.605Z,22.90
2018-06-02T19:58:30.871Z,22.80
2018-06-02T20:00:59.233Z,22.80
2018-06-02T20:03:27.590Z,22.70
2018-06-02T20:05:55.893Z,22.70
2018-06-02T20:08:24.239Z,22.70
2018-06-02T20:10:52.676Z,22.70
2018-06-02T20:13:21.186Z,22.70
2018-06-02T20:15:49.925Z,22.70
2018-06-02T20:18:18.554Z,22.70
2018-06-02T20:20:47.034Z,22.50
2018-06-02T20:23:15.319Z,22.50
2018-06-02T20:25:43.946Z,22.50
2018-06-02T20:28:12.731Z,22.50
2018-06-02T20:30:41.311Z,22.40
2018-06-02T20:33:09.749Z,22.20
2018-06-02T20:35:38.128Z,22.30
2018-06-02T20:38:06.599Z,22.10
2018-06-02T20:40:35.656Z,22.20
2018-06-02T20:43:04.236Z,22.10
2018-06-02T20:45:32.708Z,22.10
2018-06-02T20:48:01.288Z,22.10
2018-06-02T20:50:29.895Z,22.10
2018-06-02T20:52:58.525Z,22.10
2018-06-02T20:55:26.988Z,22.00
2018-06-02T20:57:55.343Z,22.00
2018-06-02T21:00:23.792Z,22.00
2018-06-02T21:02:52.380Z,22.00
2018-06-02T21:05:20.880Z,21.90
2018-06-02T21:07:49.449Z,21.90
2018-06-02T21:12:45.951Z,21.80
2018-06-02T21:15:14.245Z,21.80
2018-06-02T21:17:42.628Z,21.80
2018-06-02T21:20:11.231Z,21.70
2018-06-02T21:22:39.978Z,21.60
2018-06-02T21:25:08.495Z,21.50
2018-06-02T21:27:36.948Z,21.50
2018-06-02T21:30:05.406Z,21.50
2018-06-02T21:32:40.541Z,21.50
2018-06-02T21:35:09.141Z,21.30
2018-06-02T21:37:37.611Z,21.30
2018-06-02T21:40:06.050Z,21.30
2018-06-02T21:42:34.514Z,21.30
2018-06-02T21:45:03.048Z,21.20
2018-06-02T21:47:31.823Z,21.10
2018-06-02T21:50:00.340Z,21.10
2018-06-02T21:52:28.989Z,21.20
2018-06-02T21:54:57.522Z,21.00
2018-06-02T21:57:26.138Z,20.90
2018-06-02T21:59:54.873Z,20.80
2018-06-02T22:02:23.287Z,20.90
2018-06-02T22:04:51.770Z,20.80
2018-06-02T22:07:20.257Z,20.80
2018-06-02T22:09:48.935Z,20.80
2018-06-02T22:12:17.422Z,20.90
2018-06-02T22:14:45.865Z,20.90
2018-06-02T22:19:42.338Z,20.80
2018-06-02T22:22:10.898Z,20.80
2018-06-02T22:24:39.590Z,20.80
2018-06-02T22:27:08.301Z,20.80
2018-06-02T22:29:36.734Z,20.70
2018-06-02T22:32:05.134Z,20.80
2018-06-02T22:34:33.854Z,20.70
2018-06-02T22:37:02.572Z,20.60
2018-06-02T22:39:30.959Z,20.60
2018-06-02T22:41:59.629Z,20.50
2018-06-02T22:44:28.036Z,20.50
2018-06-02T22:49:24.961Z,20.40
2018-06-02T22:51:59.177Z,20.50
2018-06-02T22:54:28.350Z,20.50
2018-06-02T22:56:57.090Z,20.40
2018-06-02T22:59:25.893Z,20.40
2018-06-02T23:01:54.355Z,20.40
2018-06-02T23:04:22.853Z,20.30
2018-06-02T23:06:51.380Z,20.30
2018-06-02T23:09:19.953Z,20.20
2018-06-02T23:11:48.348Z,20.20
2018-06-02T23:14:16.863Z,20.10
2018-06-02T23:16:45.389Z,20.00
2018-06-02T23:19:13.663Z,20.00
2018-06-02T23:21:41.944Z,20.00
2018-06-02T23:24:10.232Z,20.00
2018-06-02T23:26:38.532Z,20.00
2018-06-02T23:29:06.876Z,20.00
2018-06-02T23:31:35.196Z,20.00
2018-06-02T23:34:03.457Z,20.00
2018-06-02T23:36:31.708Z,19.90
2018-06-02T23:39:00.030Z,19.90
2018-06-02T23:41:28.311Z,19.90
2018-06-02T23:43:56.632Z,19.90
2018-06-02T23:46:24.897Z,19.90
2018-06-02T23:48:53.211Z,19.80
2018-06-02T23:51:21.865Z,19.80
2018-06-02T23:53:50.153Z,19.70
2018-06-02T23:56:18.418Z,19.70
2018-06-02T23:58:46.714Z,19.60
